sensor_id;sensor_type;location;lat;lon;timestamp;temperature;humidity
6377;DHT22;3221;48.858;10.128;2023-11-21T00:02:22;7.20;99.90
6377;DHT22;3221;48.858;10.128;2023-11-21T00:04:49;7.30;99.90
6377;DHT22;3221;48.858;10.128;2023-11-21T00:07:16;7.40;99.90
6377;DHT22;3221;48.858;10.128;2023-11-21T00:09:43;7.40;99.90
6377;DHT22;3221;48.858;10.128;2023-11-21T00:12:10;7.20;99.90
6377;DHT22;3221;48.858;10.128;2023-11-21T00:14:38;7.20;99.90
6377;DHT22;3221;48.858;10.128;2023-11-21T00:17:06;7.10;99.90
6377;DHT22;3221;48.858;10.128;2023-11-21T00:19:33;7.10;99.90
6377;DHT22;3221;48.858;10.128;2023-11-21T00:22:01;7.00;99.90
6377;DHT22;3221;48.858;10.128;2023-11-21T00:24:28;6.90;99.90
6377;DHT22;3221;48.858;10.128;2023-11-21T00:26:55;7.00;99.90
6377;DHT22;3221;48.858;10.128;2023-11-21T00:29:22;6.90;99.90
6377;DHT22;3221;48.858;10.128;2023-11-21T00:31:50;7.00;99.90
6377;DHT22;3221;48.858;10.128;2023-11-21T00:34:17;6.80;99.90
6377;DHT22;3221;48.858;10.128;2023-11-21T00:36:44;6.90;99.90
6377;DHT22;3221;48.858;10.128;2023-11-21T00:39:11;6.80;99.90
6377;DHT22;3221;48.858;10.128;2023-11-21T00:41:39;6.70;99.90
6377;DHT22;3221;48.858;10.128;2023-11-21T00:44:06;6.80;99.90
6377;DHT22;3221;48.858;10.128;2023-11-21T00:46:33;6.90;99.90
6377;DHT22;3221;48.858;10.128;2023-11-21T00:49:00;7.00;99.90
6377;DHT22;3221;48.858;10.128;2023-11-21T00:51:27;7.00;99.90
6377;DHT22;3221;48.858;10.128;2023-11-21T00:53:54;7.00;99.90
6377;DHT22;3221;48.858;10.128;2023-11-21T00:56:21;7.10;99.90
6377;DHT22;3221;48.858;10.128;2023-11-21T00:58:49;7.10;99.90
6377;DHT22;3221;48.858;10.128;2023-11-21T01:01:18;7.20;99.90
6377;DHT22;3221;48.858;10.128;2023-11-21T01:03:49;7.20;99.90
6377;DHT22;3221;48.858;10.128;2023-11-21T01:06:16;7.20;99.90
6377;DHT22;3221;48.858;10.128;2023-11-21T01:08:44;7.00;99.90
6377;DHT22;3221;48.858;10.128;2023-11-21T01:11:11;7.00;99.90
6377;DHT22;3221;48.858;10.128;2023-11-21T01:13:39;7.00;99.90
6377;DHT22;3221;48.858;10.128;2023-11-21T01:16:07;7.00;99.90
6377;DHT22;3221;48.858;10.128;2023-11-21T01:18:37;6.90;99.90
6377;DHT22;3221;48.858;10.128;2023-11-21T01:21:05;6.90;99.90
6377;DHT22;3221;48.858;10.128;2023-11-21T01:23:32;6.90;99.90
6377;DHT22;3221;48.858;10.128;2023-11-21T01:25:59;6.80;99.90
6377;DHT22;3221;48.858;10.128;2023-11-21T01:28:26;6.90;99.90
6377;DHT22;3221;48.858;10.128;2023-11-21T01:30:53;7.00;99.90
6377;DHT22;3221;48.858;10.128;2023-11-21T01:33:23;7.00;99.90
6377;DHT22;3221;48.858;10.128;2023-11-21T01:35:52;6.90;99.90
6377;DHT22;3221;48.858;10.128;2023-11-21T01:38:21;7.20;99.90
6377;DHT22;3221;48.858;10.128;2023-11-21T01:40:48;7.20;99.90
6377;DHT22;3221;48.858;10.128;2023-11-21T01:43:16;7.20;99.90
6377;DHT22;3221;48.858;10.128;2023-11-21T01:45:43;7.20;99.90
6377;DHT22;3221;48.858;10.128;2023-11-21T01:48:13;7.10;99.90
6377;DHT22;3221;48.858;10.128;2023-11-21T01:50:41;7.00;99.90
6377;DHT22;3221;48.858;10.128;2023-11-21T01:53:10;7.00;99.90
6377;DHT22;3221;48.858;10.128;2023-11-21T01:55:38;7.20;99.90
6377;DHT22;3221;48.858;10.128;2023-11-21T01:58:05;7.10;99.90
6377;DHT22;3221;48.858;10.128;2023-11-21T02:00:34;7.00;99.90
6377;DHT22;3221;48.858;10.128;2023-11-21T02:03:01;7.00;99.90
6377;DHT22;3221;48.858;10.128;2023-11-21T02:05:29;6.90;99.90
6377;DHT22;3221;48.858;10.128;2023-11-21T02:07:58;7.00;99.90
6377;DHT22;3221;48.858;10.128;2023-11-21T02:10:26;7.00;99.90
6377;DHT22;3221;48.858;10.128;2023-11-21T02:12:53;6.80;99.90
6377;DHT22;3221;48.858;10.128;2023-11-21T02:15:20;6.90;99.90
6377;DHT22;3221;48.858;10.128;2023-11-21T02:17:49;6.80;99.90
6377;DHT22;3221;48.858;10.128;2023-11-21T02:20:22;6.90;99.90
6377;DHT22;3221;48.858;10.128;2023-11-21T02:22:56;7.00;99.90
6377;DHT22;3221;48.858;10.128;2023-11-21T02:25:31;6.90;99.90
6377;DHT22;3221;48.858;10.128;2023-11-21T02:28:01;6.80;99.90
6377;DHT22;3221;48.858;10.128;2023-11-21T02:30:29;6.90;99.90
6377;DHT22;3221;48.858;10.128;2023-11-21T02:33:00;6.90;99.90
6377;DHT22;3221;48.858;10.128;2023-11-21T02:35:28;6.90;99.90
6377;DHT22;3221;48.858;10.128;2023-11-21T02:37:55;6.90;99.90
6377;DHT22;3221;48.858;10.128;2023-11-21T02:40:24;6.90;99.90
6377;DHT22;3221;48.858;10.128;2023-11-21T02:42:52;6.90;99.90
6377;DHT22;3221;48.858;10.128;2023-11-21T02:45:20;6.90;99.90
6377;DHT22;3221;48.858;10.128;2023-11-21T02:47:48;6.90;99.90
6377;DHT22;3221;48.858;10.128;2023-11-21T02:50:20;7.10;99.90
6377;DHT22;3221;48.858;10.128;2023-11-21T02:52:47;7.10;99.90
6377;DHT22;3221;48.858;10.128;2023-11-21T02:55:14;7.00;99.90
6377;DHT22;3221;48.858;10.128;2023-11-21T02:57:41;7.00;99.90
6377;DHT22;3221;48.858;10.128;2023-11-21T03:00:09;7.00;99.90
6377;DHT22;3221;48.858;10.128;2023-11-21T03:02:42;7.00;99.90
6377;DHT22;3221;48.858;10.128;2023-11-21T03:05:09;6.90;99.90
6377;DHT22;3221;48.858;10.128;2023-11-21T03:07:37;6.80;99.90
6377;DHT22;3221;48.858;10.128;2023-11-21T03:10:08;6.90;99.90
6377;DHT22;3221;48.858;10.128;2023-11-21T03:12:39;7.00;99.90
6377;DHT22;3221;48.858;10.128;2023-11-21T03:15:07;7.10;99.90
6377;DHT22;3221;48.858;10.128;2023-11-21T03:17:35;7.20;99.90
6377;DHT22;3221;48.858;10.128;2023-11-21T03:20:04;7.00;99.90
6377;DHT22;3221;48.858;10.128;2023-11-21T03:22:31;7.00;99.90
6377;DHT22;3221;48.858;10.128;2023-11-21T03:24:58;6.90;99.90
6377;DHT22;3221;48.858;10.128;2023-11-21T03:27:26;6.80;99.90
6377;DHT22;3221;48.858;10.128;2023-11-21T03:29:53;6.90;99.90
6377;DHT22;3221;48.858;10.128;2023-11-21T03:32:21;7.10;99.90
6377;DHT22;3221;48.858;10.128;2023-11-21T03:34:56;7.00;99.90
6377;DHT22;3221;48.858;10.128;2023-11-21T03:37:25;6.90;99.90
6377;DHT22;3221;48.858;10.128;2023-11-21T03:39:55;6.90;99.90
6377;DHT22;3221;48.858;10.128;2023-11-21T03:42:22;7.10;99.90
6377;DHT22;3221;48.858;10.128;2023-11-21T03:44:51;6.90;99.90
6377;DHT22;3221;48.858;10.128;2023-11-21T03:47:18;6.80;99.90
6377;DHT22;3221;48.858;10.128;2023-11-21T03:49:46;6.80;99.90
6377;DHT22;3221;48.858;10.128;2023-11-21T03:52:15;6.70;99.90
6377;DHT22;3221;48.858;10.128;2023-11-21T03:54:43;6.70;99.90
6377;DHT22;3221;48.858;10.128;2023-11-21T03:57:10;6.70;99.90
6377;DHT22;3221;48.858;10.128;2023-11-21T03:59:42;6.70;99.90
6377;DHT22;3221;48.858;10.128;2023-11-21T04:02:09;6.70;99.90
6377;DHT22;3221;48.858;10.128;2023-11-21T04:04:36;6.70;99.90
6377;DHT22;3221;48.858;10.128;2023-11-21T04:07:04;6.70;99.90
6377;DHT22;3221;48.858;10.128;2023-11-21T04:09:31;6.80;99.90
6377;DHT22;3221;48.858;10.128;2023-11-21T04:11:58;6.80;99.90
6377;DHT22;3221;48.858;10.128;2023-11-21T04:14:25;6.80;99.90
6377;DHT22;3221;48.858;10.128;2023-11-21T04:16:52;6.90;99.90
6377;DHT22;3221;48.858;10.128;2023-11-21T04:19:20;7.10;99.90
6377;DHT22;3221;48.858;10.128;2023-11-21T04:21:47;7.10;99.90
6377;DHT22;3221;48.858;10.128;2023-11-21T04:24:14;7.10;99.90
6377;DHT22;3221;48.858;10.128;2023-11-21T04:26:41;7.10;99.90
6377;DHT22;3221;48.858;10.128;2023-11-21T04:29:08;7.00;99.90
6377;DHT22;3221;48.858;10.128;2023-11-21T04:31:35;6.90;99.90
6377;DHT22;3221;48.858;10.128;2023-11-21T04:34:02;6.90;99.90
6377;DHT22;3221;48.858;10.128;2023-11-21T04:36:30;6.90;99.90
6377;DHT22;3221;48.858;10.128;2023-11-21T04:38:58;6.90;99.90
6377;DHT22;3221;48.858;10.128;2023-11-21T04:41:25;6.80;99.90
6377;DHT22;3221;48.858;10.128;2023-11-21T04:43:52;7.10;99.90
6377;DHT22;3221;48.858;10.128;2023-11-21T04:46:18;7.20;99.90
6377;DHT22;3221;48.858;10.128;2023-11-21T04:48:45;7.10;99.90
6377;DHT22;3221;48.858;10.128;2023-11-21T04:51:13;7.10;99.90
6377;DHT22;3221;48.858;10.128;2023-11-21T04:53:40;7.00;99.90
6377;DHT22;3221;48.858;10.128;2023-11-21T04:56:07;6.90;99.90
6377;DHT22;3221;48.858;10.128;2023-11-21T04:58:34;7.00;99.90
6377;DHT22;3221;48.858;10.128;2023-11-21T05:01:02;6.90;99.90
6377;DHT22;3221;48.858;10.128;2023-11-21T05:03:34;6.80;99.90
6377;DHT22;3221;48.858;10.128;2023-11-21T05:06:01;7.00;99.90
6377;DHT22;3221;48.858;10.128;2023-11-21T05:08:29;6.90;99.90
6377;DHT22;3221;48.858;10.128;2023-11-21T05:10:55;6.80;99.90
6377;DHT22;3221;48.858;10.128;2023-11-21T05:13:22;6.90;99.90
6377;DHT22;3221;48.858;10.128;2023-11-21T05:15:57;7.20;99.90
6377;DHT22;3221;48.858;10.128;2023-11-21T05:18:24;6.90;99.90
6377;DHT22;3221;48.858;10.128;2023-11-21T05:20:54;6.90;99.90
6377;DHT22;3221;48.858;10.128;2023-11-21T05:23:20;6.80;99.90
6377;DHT22;3221;48.858;10.128;2023-11-21T05:25:47;6.80;99.90
6377;DHT22;3221;48.858;10.128;2023-11-21T05:28:14;6.70;99.90
6377;DHT22;3221;48.858;10.128;2023-11-21T05:30:41;6.70;99.90
6377;DHT22;3221;48.858;10.128;2023-11-21T05:33:08;6.70;99.90
6377;DHT22;3221;48.858;10.128;2023-11-21T05:35:35;6.80;99.90
6377;DHT22;3221;48.858;10.128;2023-11-21T05:38:02;6.90;99.90
6377;DHT22;3221;48.858;10.128;2023-11-21T05:40:29;6.80;99.90
6377;DHT22;3221;48.858;10.128;2023-11-21T05:42:56;6.90;99.90
6377;DHT22;3221;48.858;10.128;2023-11-21T05:45:23;6.90;99.90
6377;DHT22;3221;48.858;10.128;2023-11-21T05:47:50;6.80;99.90
6377;DHT22;3221;48.858;10.128;2023-11-21T05:50:17;6.80;99.90
6377;DHT22;3221;48.858;10.128;2023-11-21T05:52:46;7.00;99.90
6377;DHT22;3221;48.858;10.128;2023-11-21T05:55:14;6.90;99.90
6377;DHT22;3221;48.858;10.128;2023-11-21T05:57:41;6.90;99.90
6377;DHT22;3221;48.858;10.128;2023-11-21T06:00:13;6.90;99.90
6377;DHT22;3221;48.858;10.128;2023-11-21T06:02:53;6.90;99.90
6377;DHT22;3221;48.858;10.128;2023-11-21T06:05:22;6.80;99.90
6377;DHT22;3221;48.858;10.128;2023-11-21T06:07:53;6.90;99.90
6377;DHT22;3221;48.858;10.128;2023-11-21T06:10:22;6.80;99.90
6377;DHT22;3221;48.858;10.128;2023-11-21T06:12:52;6.80;99.90
6377;DHT22;3221;48.858;10.128;2023-11-21T06:15:19;6.80;99.90
6377;DHT22;3221;48.858;10.128;2023-11-21T06:17:47;6.80;99.90
6377;DHT22;3221;48.858;10.128;2023-11-21T06:20:19;6.80;99.90
6377;DHT22;3221;48.858;10.128;2023-11-21T06:22:47;6.80;99.90
6377;DHT22;3221;48.858;10.128;2023-11-21T06:25:14;6.80;99.90
6377;DHT22;3221;48.858;10.128;2023-11-21T06:27:46;6.90;99.90
6377;DHT22;3221;48.858;10.128;2023-11-21T06:30:17;7.00;99.90
6377;DHT22;3221;48.858;10.128;2023-11-21T06:32:46;7.00;99.90
6377;DHT22;3221;48.858;10.128;2023-11-21T06:35:15;7.00;99.90
6377;DHT22;3221;48.858;10.128;2023-11-21T06:37:44;7.10;99.90
6377;DHT22;3221;48.858;10.128;2023-11-21T06:40:17;7.10;99.90
6377;DHT22;3221;48.858;10.128;2023-11-21T06:42:45;7.00;99.90
6377;DHT22;3221;48.858;10.128;2023-11-21T06:45:15;7.00;99.90
6377;DHT22;3221;48.858;10.128;2023-11-21T06:47:42;7.10;99.90
6377;DHT22;3221;48.858;10.128;2023-11-21T06:50:10;7.10;99.90
6377;DHT22;3221;48.858;10.128;2023-11-21T06:52:37;7.00;99.90
6377;DHT22;3221;48.858;10.128;2023-11-21T06:55:05;7.10;99.90
6377;DHT22;3221;48.858;10.128;2023-11-21T06:57:35;7.00;99.90
6377;DHT22;3221;48.858;10.128;2023-11-21T07:00:02;7.00;99.90
6377;DHT22;3221;48.858;10.128;2023-11-21T07:02:29;7.00;99.90
6377;DHT22;3221;48.858;10.128;2023-11-21T07:04:56;7.00;99.90
6377;DHT22;3221;48.858;10.128;2023-11-21T07:07:23;7.00;99.90
6377;DHT22;3221;48.858;10.128;2023-11-21T07:09:50;7.00;99.90
6377;DHT22;3221;48.858;10.128;2023-11-21T07:12:19;7.10;99.90
6377;DHT22;3221;48.858;10.128;2023-11-21T07:14:46;7.00;99.90
6377;DHT22;3221;48.858;10.128;2023-11-21T07:17:13;6.90;99.90
6377;DHT22;3221;48.858;10.128;2023-11-21T07:19:40;7.00;99.90
6377;DHT22;3221;48.858;10.128;2023-11-21T07:22:08;7.10;99.90
6377;DHT22;3221;48.858;10.128;2023-11-21T07:24:36;7.00;99.90
6377;DHT22;3221;48.858;10.128;2023-11-21T07:27:03;6.90;99.90
6377;DHT22;3221;48.858;10.128;2023-11-21T07:29:31;6.90;99.90
6377;DHT22;3221;48.858;10.128;2023-11-21T07:31:58;6.80;99.90
6377;DHT22;3221;48.858;10.128;2023-11-21T07:34:25;6.80;99.90
6377;DHT22;3221;48.858;10.128;2023-11-21T07:36:52;7.10;99.90
6377;DHT22;3221;48.858;10.128;2023-11-21T07:39:19;6.90;99.90
6377;DHT22;3221;48.858;10.128;2023-11-21T07:41:45;6.90;99.90
6377;DHT22;3221;48.858;10.128;2023-11-21T07:44:16;7.00;99.90
6377;DHT22;3221;48.858;10.128;2023-11-21T07:46:44;6.90;99.90
6377;DHT22;3221;48.858;10.128;2023-11-21T07:49:12;7.10;99.90
6377;DHT22;3221;48.858;10.128;2023-11-21T07:51:43;7.20;99.90
6377;DHT22;3221;48.858;10.128;2023-11-21T07:54:10;7.00;99.90
6377;DHT22;3221;48.858;10.128;2023-11-21T07:56:37;7.00;99.90
6377;DHT22;3221;48.858;10.128;2023-11-21T07:59:04;7.00;99.90
6377;DHT22;3221;48.858;10.128;2023-11-21T08:01:31;7.00;99.90
6377;DHT22;3221;48.858;10.128;2023-11-21T08:03:58;7.00;99.90
6377;DHT22;3221;48.858;10.128;2023-11-21T08:06:30;7.00;99.90
6377;DHT22;3221;48.858;10.128;2023-11-21T08:08:57;6.90;99.90
6377;DHT22;3221;48.858;10.128;2023-11-21T08:11:24;7.00;99.90
6377;DHT22;3221;48.858;10.128;2023-11-21T08:13:53;7.20;99.90
6377;DHT22;3221;48.858;10.128;2023-11-21T08:16:21;7.10;99.90
6377;DHT22;3221;48.858;10.128;2023-11-21T08:18:48;7.10;99.90
6377;DHT22;3221;48.858;10.128;2023-11-21T08:21:14;7.10;99.90
6377;DHT22;3221;48.858;10.128;2023-11-21T08:23:41;7.10;99.90
6377;DHT22;3221;48.858;10.128;2023-11-21T08:26:08;7.00;99.90
6377;DHT22;3221;48.858;10.128;2023-11-21T08:28:35;7.10;99.90
6377;DHT22;3221;48.858;10.128;2023-11-21T08:31:02;7.00;99.90
6377;DHT22;3221;48.858;10.128;2023-11-21T08:33:31;6.90;99.90
6377;DHT22;3221;48.858;10.128;2023-11-21T08:35:58;7.10;99.90
6377;DHT22;3221;48.858;10.128;2023-11-21T08:38:25;7.00;99.90
6377;DHT22;3221;48.858;10.128;2023-11-21T08:40:51;7.00;99.90
6377;DHT22;3221;48.858;10.128;2023-11-21T08:43:18;6.90;99.90
6377;DHT22;3221;48.858;10.128;2023-11-21T08:45:46;6.90;99.90
6377;DHT22;3221;48.858;10.128;2023-11-21T08:48:13;7.00;99.90
6377;DHT22;3221;48.858;10.128;2023-11-21T08:50:40;6.90;99.90
6377;DHT22;3221;48.858;10.128;2023-11-21T08:53:07;7.00;99.90
6377;DHT22;3221;48.858;10.128;2023-11-21T08:55:34;7.00;99.90
6377;DHT22;3221;48.858;10.128;2023-11-21T08:58:04;7.00;99.90
6377;DHT22;3221;48.858;10.128;2023-11-21T09:00:33;7.10;99.90
6377;DHT22;3221;48.858;10.128;2023-11-21T09:03:01;7.30;99.90
6377;DHT22;3221;48.858;10.128;2023-11-21T09:05:29;7.10;99.90
6377;DHT22;3221;48.858;10.128;2023-11-21T09:07:56;7.00;99.90
6377;DHT22;3221;48.858;10.128;2023-11-21T09:10:23;7.00;99.90
6377;DHT22;3221;48.858;10.128;2023-11-21T09:12:52;7.10;99.90
6377;DHT22;3221;48.858;10.128;2023-11-21T09:15:19;7.10;99.90
6377;DHT22;3221;48.858;10.128;2023-11-21T09:17:47;7.20;99.90
6377;DHT22;3221;48.858;10.128;2023-11-21T09:20:15;7.20;99.90
6377;DHT22;3221;48.858;10.128;2023-11-21T09:22:42;7.20;99.90
6377;DHT22;3221;48.858;10.128;2023-11-21T09:25:11;7.10;99.90
6377;DHT22;3221;48.858;10.128;2023-11-21T09:27:39;7.20;99.90
6377;DHT22;3221;48.858;10.128;2023-11-21T09:30:07;7.20;99.90
6377;DHT22;3221;48.858;10.128;2023-11-21T09:32:38;7.20;99.90
6377;DHT22;3221;48.858;10.128;2023-11-21T09:35:05;7.10;99.90
6377;DHT22;3221;48.858;10.128;2023-11-21T09:37:35;7.20;99.90
6377;DHT22;3221;48.858;10.128;2023-11-21T09:40:06;7.30;99.90
6377;DHT22;3221;48.858;10.128;2023-11-21T09:42:46;7.30;99.90
6377;DHT22;3221;48.858;10.128;2023-11-21T09:45:35;7.20;99.90
6377;DHT22;3221;48.858;10.128;2023-11-21T09:48:02;7.20;99.90
6377;DHT22;3221;48.858;10.128;2023-11-21T09:50:29;7.10;99.90
6377;DHT22;3221;48.858;10.128;2023-11-21T09:53:19;7.00;99.90
6377;DHT22;3221;48.858;10.128;2023-11-21T09:55:50;7.10;99.90
6377;DHT22;3221;48.858;10.128;2023-11-21T09:58:18;7.20;99.90
6377;DHT22;3221;48.858;10.128;2023-11-21T10:00:47;7.30;99.90
6377;DHT22;3221;48.858;10.128;2023-11-21T10:03:15;7.30;99.90
6377;DHT22;3221;48.858;10.128;2023-11-21T10:05:43;7.20;99.90
6377;DHT22;3221;48.858;10.128;2023-11-21T10:08:13;7.20;99.90
6377;DHT22;3221;48.858;10.128;2023-11-21T10:10:43;7.20;99.90
6377;DHT22;3221;48.858;10.128;2023-11-21T10:13:15;7.20;99.90
6377;DHT22;3221;48.858;10.128;2023-11-21T10:15:49;7.20;99.90
6377;DHT22;3221;48.858;10.128;2023-11-21T10:18:16;7.30;99.90
6377;DHT22;3221;48.858;10.128;2023-11-21T10:20:44;7.20;99.90
6377;DHT22;3221;48.858;10.128;2023-11-21T10:23:22;7.30;99.90
6377;DHT22;3221;48.858;10.128;2023-11-21T10:25:51;7.30;99.90
6377;DHT22;3221;48.858;10.128;2023-11-21T10:28:20;7.20;99.90
6377;DHT22;3221;48.858;10.128;2023-11-21T10:30:48;7.40;99.90
6377;DHT22;3221;48.858;10.128;2023-11-21T10:33:15;7.40;99.90
6377;DHT22;3221;48.858;10.128;2023-11-21T10:35:45;7.30;99.90
6377;DHT22;3221;48.858;10.128;2023-11-21T10:38:18;7.30;99.90
6377;DHT22;3221;48.858;10.128;2023-11-21T10:40:47;7.40;99.90
6377;DHT22;3221;48.858;10.128;2023-11-21T10:43:16;7.30;99.90
6377;DHT22;3221;48.858;10.128;2023-11-21T10:45:44;7.30;99.90
6377;DHT22;3221;48.858;10.128;2023-11-21T10:48:15;7.40;99.90
6377;DHT22;3221;48.858;10.128;2023-11-21T10:50:44;7.30;99.90
6377;DHT22;3221;48.858;10.128;2023-11-21T10:53:11;7.30;99.90
6377;DHT22;3221;48.858;10.128;2023-11-21T10:55:39;7.20;99.90
6377;DHT22;3221;48.858;10.128;2023-11-21T10:58:06;7.30;99.90
6377;DHT22;3221;48.858;10.128;2023-11-21T11:00:33;7.40;99.90
6377;DHT22;3221;48.858;10.128;2023-11-21T11:03:02;7.30;99.90
6377;DHT22;3221;48.858;10.128;2023-11-21T11:05:30;7.50;99.90
6377;DHT22;3221;48.858;10.128;2023-11-21T11:08:03;7.50;99.90
6377;DHT22;3221;48.858;10.128;2023-11-21T11:10:31;7.50;99.90
6377;DHT22;3221;48.858;10.128;2023-11-21T11:12:59;7.40;99.90
6377;DHT22;3221;48.858;10.128;2023-11-21T11:15:27;7.50;99.90
6377;DHT22;3221;48.858;10.128;2023-11-21T11:17:55;7.40;99.90
6377;DHT22;3221;48.858;10.128;2023-11-21T11:20:30;7.30;99.90
6377;DHT22;3221;48.858;10.128;2023-11-21T11:37:18;7.40;99.90
6377;DHT22;3221;48.858;10.128;2023-11-21T11:39:46;7.40;99.90
6377;DHT22;3221;48.858;10.128;2023-11-21T11:42:14;7.50;99.90
6377;DHT22;3221;48.858;10.128;2023-11-21T11:52:44;7.30;99.90
6377;DHT22;3221;48.858;10.128;2023-11-21T11:55:13;7.50;99.90
6377;DHT22;3221;48.858;10.128;2023-11-21T11:57:42;7.40;99.90
6377;DHT22;3221;48.858;10.128;2023-11-21T12:00:13;7.30;99.90
6377;DHT22;3221;48.858;10.128;2023-11-21T12:02:49;7.30;99.90
6377;DHT22;3221;48.858;10.128;2023-11-21T12:05:17;7.30;99.90
6377;DHT22;3221;48.858;10.128;2023-11-21T12:07:52;7.30;99.90
6377;DHT22;3221;48.858;10.128;2023-11-21T12:10:23;7.30;99.90
6377;DHT22;3221;48.858;10.128;2023-11-21T12:15:20;7.40;99.90
6377;DHT22;3221;48.858;10.128;2023-11-21T12:17:49;7.30;99.90
6377;DHT22;3221;48.858;10.128;2023-11-21T12:20:19;7.30;99.90
6377;DHT22;3221;48.858;10.128;2023-11-21T12:22:51;7.40;99.90
6377;DHT22;3221;48.858;10.128;2023-11-21T12:25:20;7.40;99.90
6377;DHT22;3221;48.858;10.128;2023-11-21T12:27:49;7.40;99.90
6377;DHT22;3221;48.858;10.128;2023-11-21T12:30:24;7.30;99.90
6377;DHT22;3221;48.858;10.128;2023-11-21T12:32:53;7.40;99.90
6377;DHT22;3221;48.858;10.128;2023-11-21T12:35:22;7.40;99.90
6377;DHT22;3221;48.858;10.128;2023-11-21T12:37:50;7.40;99.90
6377;DHT22;3221;48.858;10.128;2023-11-21T12:40:18;7.40;99.90
6377;DHT22;3221;48.858;10.128;2023-11-21T12:42:46;7.50;99.90
6377;DHT22;3221;48.858;10.128;2023-11-21T12:45:23;7.50;99.90
6377;DHT22;3221;48.858;10.128;2023-11-21T12:48:00;7.40;99.90
6377;DHT22;3221;48.858;10.128;2023-11-21T12:50:30;7.40;99.90
6377;DHT22;3221;48.858;10.128;2023-11-21T12:53:06;7.40;99.90
6377;DHT22;3221;48.858;10.128;2023-11-21T12:55:35;7.50;99.90
6377;DHT22;3221;48.858;10.128;2023-11-21T12:58:08;7.50;99.90
6377;DHT22;3221;48.858;10.128;2023-11-21T13:00:50;7.50;99.90
6377;DHT22;3221;48.858;10.128;2023-11-21T13:03:18;7.50;99.90
6377;DHT22;3221;48.858;10.128;2023-11-21T13:05:53;7.60;99.90
6377;DHT22;3221;48.858;10.128;2023-11-21T13:08:25;7.60;99.90
6377;DHT22;3221;48.858;10.128;2023-11-21T13:10:56;7.60;99.90
6377;DHT22;3221;48.858;10.128;2023-11-21T13:13:25;7.60;99.90
6377;DHT22;3221;48.858;10.128;2023-11-21T13:15:56;7.50;99.90
6377;DHT22;3221;48.858;10.128;2023-11-21T13:18:24;7.60;99.90
6377;DHT22;3221;48.858;10.128;2023-11-21T13:20:54;7.50;99.90
6377;DHT22;3221;48.858;10.128;2023-11-21T13:23:22;7.60;99.90
6377;DHT22;3221;48.858;10.128;2023-11-21T13:25:50;7.50;99.90
6377;DHT22;3221;48.858;10.128;2023-11-21T13:28:28;7.30;99.90
6377;DHT22;3221;48.858;10.128;2023-11-21T13:31:00;7.30;99.90
6377;DHT22;3221;48.858;10.128;2023-11-21T13:33:30;7.40;99.90
6377;DHT22;3221;48.858;10.128;2023-11-21T13:35:59;7.30;99.90
6377;DHT22;3221;48.858;10.128;2023-11-21T13:38:28;7.40;99.90
6377;DHT22;3221;48.858;10.128;2023-11-21T13:40:59;7.30;99.90
6377;DHT22;3221;48.858;10.128;2023-11-21T13:43:26;7.30;99.90
6377;DHT22;3221;48.858;10.128;2023-11-21T13:45:55;7.30;99.90
6377;DHT22;3221;48.858;10.128;2023-11-21T13:48:35;7.20;99.90
6377;DHT22;3221;48.858;10.128;2023-11-21T13:51:09;7.20;99.90
6377;DHT22;3221;48.858;10.128;2023-11-21T13:53:48;7.20;99.90
6377;DHT22;3221;48.858;10.128;2023-11-21T13:56:17;7.20;99.90
6377;DHT22;3221;48.858;10.128;2023-11-21T13:58:49;7.20;99.90
6377;DHT22;3221;48.858;10.128;2023-11-21T14:01:20;7.20;99.90
6377;DHT22;3221;48.858;10.128;2023-11-21T14:04:02;7.20;99.90
6377;DHT22;3221;48.858;10.128;2023-11-21T14:06:46;7.20;99.90
6377;DHT22;3221;48.858;10.128;2023-11-21T14:09:23;7.20;99.90
6377;DHT22;3221;48.858;10.128;2023-11-21T14:11:56;7.20;99.90
6377;DHT22;3221;48.858;10.128;2023-11-21T14:14:25;7.20;99.90
6377;DHT22;3221;48.858;10.128;2023-11-21T14:16:52;7.40;99.90
6377;DHT22;3221;48.858;10.128;2023-11-21T14:19:19;7.40;99.90
6377;DHT22;3221;48.858;10.128;2023-11-21T14:21:47;7.30;99.90
6377;DHT22;3221;48.858;10.128;2023-11-21T14:24:17;7.30;99.90
6377;DHT22;3221;48.858;10.128;2023-11-21T14:26:46;7.40;99.90
6377;DHT22;3221;48.858;10.128;2023-11-21T14:29:13;7.30;99.90
6377;DHT22;3221;48.858;10.128;2023-11-21T14:31:47;7.20;99.90
6377;DHT22;3221;48.858;10.128;2023-11-21T14:34:15;7.10;99.90
6377;DHT22;3221;48.858;10.128;2023-11-21T14:36:47;7.20;99.90
6377;DHT22;3221;48.858;10.128;2023-11-21T14:39:13;7.30;99.90
6377;DHT22;3221;48.858;10.128;2023-11-21T14:41:51;7.40;99.90
6377;DHT22;3221;48.858;10.128;2023-11-21T14:44:19;7.40;99.90
6377;DHT22;3221;48.858;10.128;2023-11-21T14:46:47;7.40;99.90
6377;DHT22;3221;48.858;10.128;2023-11-21T14:49:17;7.50;99.90
6377;DHT22;3221;48.858;10.128;2023-11-21T14:51:49;7.50;99.90
6377;DHT22;3221;48.858;10.128;2023-11-21T14:54:34;7.40;99.90
6377;DHT22;3221;48.858;10.128;2023-11-21T14:57:09;7.30;99.90
6377;DHT22;3221;48.858;10.128;2023-11-21T14:59:47;7.40;99.90
6377;DHT22;3221;48.858;10.128;2023-11-21T15:02:19;7.40;99.90
6377;DHT22;3221;48.858;10.128;2023-11-21T15:05:07;7.50;99.90
6377;DHT22;3221;48.858;10.128;2023-11-21T15:07:35;7.30;99.90
6377;DHT22;3221;48.858;10.128;2023-11-21T15:10:02;7.30;99.90
6377;DHT22;3221;48.858;10.128;2023-11-21T15:12:29;7.40;99.90
6377;DHT22;3221;48.858;10.128;2023-11-21T15:15:00;7.20;99.90
6377;DHT22;3221;48.858;10.128;2023-11-21T15:17:27;7.20;99.90
6377;DHT22;3221;48.858;10.128;2023-11-21T15:19:57;7.20;99.90
6377;DHT22;3221;48.858;10.128;2023-11-21T15:22:27;7.40;99.90
6377;DHT22;3221;48.858;10.128;2023-11-21T15:24:55;7.50;99.90
6377;DHT22;3221;48.858;10.128;2023-11-21T15:27:22;7.40;99.90
6377;DHT22;3221;48.858;10.128;2023-11-21T15:29:49;7.40;99.90
6377;DHT22;3221;48.858;10.128;2023-11-21T15:32:17;7.40;99.90
6377;DHT22;3221;48.858;10.128;2023-11-21T15:34:43;7.30;99.90
6377;DHT22;3221;48.858;10.128;2023-11-21T15:37:10;7.40;99.90
6377;DHT22;3221;48.858;10.128;2023-11-21T15:39:41;7.50;99.90
6377;DHT22;3221;48.858;10.128;2023-11-21T15:42:08;7.50;99.90
6377;DHT22;3221;48.858;10.128;2023-11-21T15:44:36;7.40;99.90
6377;DHT22;3221;48.858;10.128;2023-11-21T15:47:04;7.40;99.90
6377;DHT22;3221;48.858;10.128;2023-11-21T15:49:33;7.30;99.90
6377;DHT22;3221;48.858;10.128;2023-11-21T15:52:05;7.20;99.90
6377;DHT22;3221;48.858;10.128;2023-11-21T15:54:33;7.20;99.90
6377;DHT22;3221;48.858;10.128;2023-11-21T15:57:01;7.20;99.90
6377;DHT22;3221;48.858;10.128;2023-11-21T15:59:31;7.30;99.90
6377;DHT22;3221;48.858;10.128;2023-11-21T16:01:59;7.20;99.90
6377;DHT22;3221;48.858;10.128;2023-11-21T16:04:27;7.10;99.90
6377;DHT22;3221;48.858;10.128;2023-11-21T16:06:55;7.20;99.90
6377;DHT22;3221;48.858;10.128;2023-11-21T16:09:22;7.20;99.90
6377;DHT22;3221;48.858;10.128;2023-11-21T16:11:50;7.10;99.90
6377;DHT22;3221;48.858;10.128;2023-11-21T16:14:20;7.20;99.90
6377;DHT22;3221;48.858;10.128;2023-11-21T16:16:52;7.10;99.90
6377;DHT22;3221;48.858;10.128;2023-11-21T16:19:19;7.10;99.90
6377;DHT22;3221;48.858;10.128;2023-11-21T16:21:49;7.20;99.90
6377;DHT22;3221;48.858;10.128;2023-11-21T16:24:15;7.10;99.90
6377;DHT22;3221;48.858;10.128;2023-11-21T16:26:43;7.10;99.90
6377;DHT22;3221;48.858;10.128;2023-11-21T16:29:10;7.30;99.90
6377;DHT22;3221;48.858;10.128;2023-11-21T16:31:41;7.30;99.90
6377;DHT22;3221;48.858;10.128;2023-11-21T16:34:12;7.20;99.90
6377;DHT22;3221;48.858;10.128;2023-11-21T16:36:45;7.10;99.90
6377;DHT22;3221;48.858;10.128;2023-11-21T16:39:13;7.10;99.90